CBG5 weather

Nanaimo (Regional General Hospital) Heliport
Nanaimo, British Columbia, Canada

Public forecast

Using degrees Celsius for public forecast. Weather courtesy of forecast.io.

Closest aviation weather report (METAR) to Nanaimo (Regional General Hospital) Heliport

Closest report is Nanaimo Airport, 8.8 nm (16.3 km) SSE. Retrieved 2020/06/02 23:00 UTC (57 minutes ago):

CYCD 022300Z 10007KT 060V130 20SM FEW016 BKN040 BKN080 14/10 A3019 RMK CU1SC4AC2 SLP224

Closest aviation forecast (TAF) to Nanaimo (Regional General Hospital) Heliport

Closest forecast is Nanaimo Airport, 8.8 nm (16.3 km) SSE. Retrieved 2020/06/02 18:00 UTC (6 hours ago):

TAF CYCD 021739Z 0218/0304 VRB03KT P6SM -RA SCT030 OVC060 TEMPO 0218/0222 BKN030 OVC060 FM022200 14006KT P6SM BKN030 BECMG 0302/0304 VRB03KT RMK NXT FCST BY 030000Z